Terminal Aerodrome Forecast
Issued by NWS Duluth, MN

Home | Current Version | Previous Version | Text Only | Print | Product List | Glossary On
Versions: 1 2 3 4 5 6 7 8 9 10 11 12 13 14 15 16 17 18 19 20 21 22 23 24 25 26 27 28 29 30 31 32
090
FTUS43 KDLH 061129
TAFINL
TAF
KINL 061129Z 0612/0712 20003KT P6SM SCT020 BKN080
      TEMPO 0612/0614 6SM BR BKN015
     FM061600 16007KT P6SM SCT015 OVC050
     FM062000 16010KT 2SM -SN OVC015
      TEMPO 0622/0702 3/4SM -SN OVC007
     FM070600 23012KT P6SM VCSH OVC010=

USA.gov is the U.S. government's official web portal to all federal, state and local government web resources and services.